sensor_id;sensor_type;location;lat;lon;timestamp;pressure;altitude;pressure_sealevel;temperature;humidity
82266;BME280;71866;53.340;-6.308;2024-01-15T00:00:22;101344.38;;;4.69;81.06
82266;BME280;71866;53.340;-6.308;2024-01-15T00:02:50;101339.06;;;4.69;81.46
82266;BME280;71866;53.340;-6.308;2024-01-15T00:05:17;101341.03;;;4.65;81.24
82266;BME280;71866;53.340;-6.308;2024-01-15T00:07:44;101339.41;;;4.63;81.58
82266;BME280;71866;53.340;-6.308;2024-01-15T00:10:11;101342.91;;;4.63;82.29
82266;BME280;71866;53.340;-6.308;2024-01-15T00:12:39;101337.53;;;4.65;81.85
82266;BME280;71866;53.340;-6.308;2024-01-15T00:15:05;101334.88;;;4.65;81.08
82266;BME280;71866;53.340;-6.308;2024-01-15T00:17:33;101333.44;;;4.59;81.21
82266;BME280;71866;53.340;-6.308;2024-01-15T00:20:00;101324.69;;;4.57;81.68
82266;BME280;71866;53.340;-6.308;2024-01-15T00:22:28;101331.63;;;4.60;81.53
82266;BME280;71866;53.340;-6.308;2024-01-15T00:24:54;101330.00;;;4.57;81.71
82266;BME280;71866;53.340;-6.308;2024-01-15T00:27:21;101328.47;;;4.53;81.79
82266;BME280;71866;53.340;-6.308;2024-01-15T00:29:49;101325.72;;;4.55;81.56
82266;BME280;71866;53.340;-6.308;2024-01-15T00:32:16;101316.06;;;4.54;81.59
82266;BME280;71866;53.340;-6.308;2024-01-15T00:34:44;101314.00;;;4.59;82.86
82266;BME280;71866;53.340;-6.308;2024-01-15T00:37:11;101321.97;;;4.59;81.62
82266;BME280;71866;53.340;-6.308;2024-01-15T00:39:38;101324.53;;;4.60;81.33
82266;BME280;71866;53.340;-6.308;2024-01-15T00:42:05;101318.72;;;4.54;80.98
82266;BME280;71866;53.340;-6.308;2024-01-15T00:44:32;101311.53;;;4.56;81.25
82266;BME280;71866;53.340;-6.308;2024-01-15T00:46:59;101311.34;;;4.59;81.33
82266;BME280;71866;53.340;-6.308;2024-01-15T00:49:27;101318.44;;;4.58;80.90
82266;BME280;71866;53.340;-6.308;2024-01-15T00:51:55;101314.19;;;4.56;80.63
82266;BME280;71866;53.340;-6.308;2024-01-15T00:54:27;101314.34;;;4.53;81.42
82266;BME280;71866;53.340;-6.308;2024-01-15T00:56:54;101305.63;;;4.51;81.26
82266;BME280;71866;53.340;-6.308;2024-01-15T00:59:21;101305.88;;;4.46;80.84
82266;BME280;71866;53.340;-6.308;2024-01-15T01:01:48;101313.59;;;4.51;80.74
82266;BME280;71866;53.340;-6.308;2024-01-15T01:04:16;101312.81;;;4.49;81.16
82266;BME280;71866;53.340;-6.308;2024-01-15T01:06:44;101304.94;;;4.47;81.41
82266;BME280;71866;53.340;-6.308;2024-01-15T01:09:11;101292.69;;;4.45;80.79
82266;BME280;71866;53.340;-6.308;2024-01-15T01:11:38;101302.34;;;4.46;80.55
82266;BME280;71866;53.340;-6.308;2024-01-15T01:14:05;101284.81;;;4.43;81.29
82266;BME280;71866;53.340;-6.308;2024-01-15T01:16:33;101284.97;;;4.40;81.17
82266;BME280;71866;53.340;-6.308;2024-01-15T01:18:59;101291.41;;;4.36;81.41
82266;BME280;71866;53.340;-6.308;2024-01-15T01:21:28;101281.66;;;4.36;81.65
82266;BME280;71866;53.340;-6.308;2024-01-15T01:23:55;101269.69;;;4.29;81.30
82266;BME280;71866;53.340;-6.308;2024-01-15T01:26:22;101288.91;;;4.33;81.64
82266;BME280;71866;53.340;-6.308;2024-01-15T01:28:49;101281.22;;;4.28;81.63
82266;BME280;71866;53.340;-6.308;2024-01-15T01:31:16;101285.75;;;4.26;81.73
82266;BME280;71866;53.340;-6.308;2024-01-15T01:33:44;101286.53;;;4.28;82.12
82266;BME280;71866;53.340;-6.308;2024-01-15T01:36:10;101282.09;;;4.29;81.80
82266;BME280;71866;53.340;-6.308;2024-01-15T01:38:40;101280.28;;;4.29;81.87
82266;BME280;71866;53.340;-6.308;2024-01-15T01:41:08;101271.66;;;4.26;81.52
82266;BME280;71866;53.340;-6.308;2024-01-15T01:43:34;101282.00;;;4.30;81.48
82266;BME280;71866;53.340;-6.308;2024-01-15T01:46:01;101274.81;;;4.32;81.78
82266;BME280;71866;53.340;-6.308;2024-01-15T01:48:29;101280.13;;;4.32;81.72
82266;BME280;71866;53.340;-6.308;2024-01-15T01:50:59;101278.31;;;4.33;81.36
82266;BME280;71866;53.340;-6.308;2024-01-15T01:53:27;101280.13;;;4.32;81.74
82266;BME280;71866;53.340;-6.308;2024-01-15T01:55:56;101286.69;;;4.25;81.23
82266;BME280;71866;53.340;-6.308;2024-01-15T01:58:26;101274.47;;;4.23;81.60
82266;BME280;71866;53.340;-6.308;2024-01-15T02:00:58;101275.25;;;4.25;81.97
82266;BME280;71866;53.340;-6.308;2024-01-15T02:03:31;101276.34;;;4.21;82.07
82266;BME280;71866;53.340;-6.308;2024-01-15T02:06:00;101273.00;;;4.17;81.21
82266;BME280;71866;53.340;-6.308;2024-01-15T02:08:28;101272.84;;;4.20;81.87
82266;BME280;71866;53.340;-6.308;2024-01-15T02:10:56;101273.63;;;4.22;81.82
82266;BME280;71866;53.340;-6.308;2024-01-15T02:13:24;101274.56;;;4.21;81.63
82266;BME280;71866;53.340;-6.308;2024-01-15T02:15:52;101271.91;;;4.21;82.02
82266;BME280;71866;53.340;-6.308;2024-01-15T02:18:21;101272.75;;;4.22;81.52
82266;BME280;71866;53.340;-6.308;2024-01-15T02:20:48;101275.31;;;4.23;82.07
82266;BME280;71866;53.340;-6.308;2024-01-15T02:23:15;101260.28;;;4.24;81.36
82266;BME280;71866;53.340;-6.308;2024-01-15T02:25:46;101257.28;;;4.14;81.94
82266;BME280;71866;53.340;-6.308;2024-01-15T02:28:16;101264.13;;;4.18;81.68
82266;BME280;71866;53.340;-6.308;2024-01-15T02:30:43;101259.59;;;4.20;82.08
82266;BME280;71866;53.340;-6.308;2024-01-15T02:33:12;101260.88;;;4.13;81.99
82266;BME280;71866;53.340;-6.308;2024-01-15T02:35:39;101259.16;;;4.12;82.06
82266;BME280;71866;53.340;-6.308;2024-01-15T02:38:06;101264.84;;;4.04;82.42
82266;BME280;71866;53.340;-6.308;2024-01-15T02:40:35;101266.81;;;4.01;82.01
82266;BME280;71866;53.340;-6.308;2024-01-15T02:43:02;101260.50;;;4.03;81.94
82266;BME280;71866;53.340;-6.308;2024-01-15T02:45:30;101268.69;;;3.99;82.86
82266;BME280;71866;53.340;-6.308;2024-01-15T02:47:57;101259.13;;;3.96;82.07
82266;BME280;71866;53.340;-6.308;2024-01-15T02:50:24;101265.09;;;4.00;82.61
82266;BME280;71866;53.340;-6.308;2024-01-15T02:52:52;101260.91;;;3.96;82.02
82266;BME280;71866;53.340;-6.308;2024-01-15T02:55:19;101259.28;;;3.93;82.79
82266;BME280;71866;53.340;-6.308;2024-01-15T02:57:47;101266.97;;;3.98;82.73
82266;BME280;71866;53.340;-6.308;2024-01-15T03:00:13;101264.75;;;3.90;82.38
82266;BME280;71866;53.340;-6.308;2024-01-15T03:02:41;101266.13;;;3.97;82.45
82266;BME280;71866;53.340;-6.308;2024-01-15T03:05:12;101262.63;;;3.97;83.02
82266;BME280;71866;53.340;-6.308;2024-01-15T03:07:40;101259.91;;;3.98;82.38
82266;BME280;71866;53.340;-6.308;2024-01-15T03:10:08;101268.28;;;4.06;82.20
82266;BME280;71866;53.340;-6.308;2024-01-15T03:12:34;101258.63;;;4.05;82.75
82266;BME280;71866;53.340;-6.308;2024-01-15T03:15:02;101261.81;;;4.12;82.48
82266;BME280;71866;53.340;-6.308;2024-01-15T03:17:29;101262.75;;;4.11;82.47
82266;BME280;71866;53.340;-6.308;2024-01-15T03:19:57;101266.19;;;4.13;81.58
82266;BME280;71866;53.340;-6.308;2024-01-15T03:22:24;101265.22;;;4.14;82.23
82266;BME280;71866;53.340;-6.308;2024-01-15T03:24:52;101256.91;;;4.04;81.81
82266;BME280;71866;53.340;-6.308;2024-01-15T03:27:20;101259.09;;;4.14;81.43
82266;BME280;71866;53.340;-6.308;2024-01-15T03:29:47;101259.84;;;4.16;82.21
82266;BME280;71866;53.340;-6.308;2024-01-15T03:32:14;101270.97;;;4.22;81.80
82266;BME280;71866;53.340;-6.308;2024-01-15T03:34:41;101263.97;;;4.21;81.30
82266;BME280;71866;53.340;-6.308;2024-01-15T03:37:09;101260.38;;;4.22;81.46
82266;BME280;71866;53.340;-6.308;2024-01-15T03:39:36;101259.59;;;4.20;81.03
82266;BME280;71866;53.340;-6.308;2024-01-15T03:42:03;101258.56;;;4.23;81.15
82266;BME280;71866;53.340;-6.308;2024-01-15T03:44:31;101260.19;;;4.25;81.75
82266;BME280;71866;53.340;-6.308;2024-01-15T03:46:58;101255.66;;;4.27;81.27
82266;BME280;71866;53.340;-6.308;2024-01-15T03:49:24;101254.13;;;4.23;81.32
82266;BME280;71866;53.340;-6.308;2024-01-15T03:51:52;101254.22;;;4.22;80.99
82266;BME280;71866;53.340;-6.308;2024-01-15T03:54:19;101254.13;;;4.23;81.66
82266;BME280;71866;53.340;-6.308;2024-01-15T03:56:47;101253.53;;;4.18;80.56
82266;BME280;71866;53.340;-6.308;2024-01-15T03:59:14;101252.41;;;4.22;80.72
82266;BME280;71866;53.340;-6.308;2024-01-15T04:01:41;101233.88;;;4.22;81.04
82266;BME280;71866;53.340;-6.308;2024-01-15T04:04:08;101232.31;;;4.18;80.93
82266;BME280;71866;53.340;-6.308;2024-01-15T04:06:35;101242.94;;;4.18;80.97
82266;BME280;71866;53.340;-6.308;2024-01-15T04:09:02;101227.78;;;4.20;81.09
82266;BME280;71866;53.340;-6.308;2024-01-15T04:11:30;101240.09;;;4.21;80.94
82266;BME280;71866;53.340;-6.308;2024-01-15T04:13:56;101237.53;;;4.20;80.35
82266;BME280;71866;53.340;-6.308;2024-01-15T04:16:24;101232.16;;;4.21;80.28
82266;BME280;71866;53.340;-6.308;2024-01-15T04:18:50;101241.47;;;4.13;80.76
82266;BME280;71866;53.340;-6.308;2024-01-15T04:21:17;101242.03;;;4.02;81.49
82266;BME280;71866;53.340;-6.308;2024-01-15T04:23:45;101252.38;;;4.06;81.45
82266;BME280;71866;53.340;-6.308;2024-01-15T04:26:13;101246.09;;;4.09;81.62
82266;BME280;71866;53.340;-6.308;2024-01-15T04:28:40;101242.41;;;4.12;80.76
82266;BME280;71866;53.340;-6.308;2024-01-15T04:31:07;101238.66;;;4.16;81.05
82266;BME280;71866;53.340;-6.308;2024-01-15T04:33:34;101225.66;;;4.11;80.51
82266;BME280;71866;53.340;-6.308;2024-01-15T04:36:04;101248.06;;;4.21;80.45
82266;BME280;71866;53.340;-6.308;2024-01-15T04:38:31;101262.16;;;4.22;80.58
82266;BME280;71866;53.340;-6.308;2024-01-15T04:40:58;101262.25;;;4.20;80.67
82266;BME280;71866;53.340;-6.308;2024-01-15T04:43:25;101257.03;;;4.19;80.55
82266;BME280;71866;53.340;-6.308;2024-01-15T04:45:52;101250.09;;;4.16;79.88
82266;BME280;71866;53.340;-6.308;2024-01-15T04:48:19;101241.38;;;4.14;79.44
82266;BME280;71866;53.340;-6.308;2024-01-15T04:50:46;101232.66;;;4.12;80.68
82266;BME280;71866;53.340;-6.308;2024-01-15T04:53:14;101231.94;;;4.08;80.10
82266;BME280;71866;53.340;-6.308;2024-01-15T04:55:40;101250.25;;;3.97;81.16
82266;BME280;71866;53.340;-6.308;2024-01-15T04:58:08;101250.16;;;3.99;80.85
82266;BME280;71866;53.340;-6.308;2024-01-15T05:00:34;101259.22;;;3.95;81.28
82266;BME280;71866;53.340;-6.308;2024-01-15T05:03:01;101264.66;;;3.92;81.35
82266;BME280;71866;53.340;-6.308;2024-01-15T05:05:29;101255.88;;;3.91;81.46
82266;BME280;71866;53.340;-6.308;2024-01-15T05:07:55;101252.19;;;3.94;81.19
82266;BME280;71866;53.340;-6.308;2024-01-15T05:10:23;101259.97;;;3.97;80.91
82266;BME280;71866;53.340;-6.308;2024-01-15T05:12:49;101255.63;;;3.96;80.45
82266;BME280;71866;53.340;-6.308;2024-01-15T05:15:18;101256.63;;;3.93;80.41
82266;BME280;71866;53.340;-6.308;2024-01-15T05:17:45;101265.69;;;3.89;80.27
82266;BME280;71866;53.340;-6.308;2024-01-15T05:20:12;101276.22;;;3.91;81.18
82266;BME280;71866;53.340;-6.308;2024-01-15T05:22:39;101270.06;;;3.90;80.72
82266;BME280;71866;53.340;-6.308;2024-01-15T05:25:06;101267.66;;;3.86;80.23
82266;BME280;71866;53.340;-6.308;2024-01-15T05:27:34;101260.81;;;3.82;80.97
82266;BME280;71866;53.340;-6.308;2024-01-15T05:30:00;101259.34;;;3.76;81.31
82266;BME280;71866;53.340;-6.308;2024-01-15T05:32:28;101250.00;;;3.69;80.59
82266;BME280;71866;53.340;-6.308;2024-01-15T05:34:55;101256.31;;;3.66;81.82
82266;BME280;71866;53.340;-6.308;2024-01-15T05:37:22;101261.53;;;3.68;80.92
82266;BME280;71866;53.340;-6.308;2024-01-15T05:39:50;101264.41;;;3.63;80.93
82266;BME280;71866;53.340;-6.308;2024-01-15T05:42:17;101259.28;;;3.60;81.55
82266;BME280;71866;53.340;-6.308;2024-01-15T05:44:44;101275.78;;;3.65;81.34
82266;BME280;71866;53.340;-6.308;2024-01-15T05:47:13;101280.38;;;3.62;80.62
82266;BME280;71866;53.340;-6.308;2024-01-15T05:49:40;101295.25;;;3.64;81.09
82266;BME280;71866;53.340;-6.308;2024-01-15T05:52:08;101290.56;;;3.69;80.96
82266;BME280;71866;53.340;-6.308;2024-01-15T05:54:34;101296.59;;;3.73;81.00
82266;BME280;71866;53.340;-6.308;2024-01-15T05:57:01;101289.16;;;3.80;80.86
82266;BME280;71866;53.340;-6.308;2024-01-15T05:59:28;101283.63;;;3.84;81.00
82266;BME280;71866;53.340;-6.308;2024-01-15T06:01:55;101265.00;;;3.86;80.45
82266;BME280;71866;53.340;-6.308;2024-01-15T06:04:22;101266.81;;;3.85;79.73
82266;BME280;71866;53.340;-6.308;2024-01-15T06:06:50;101259.78;;;3.84;80.07
82266;BME280;71866;53.340;-6.308;2024-01-15T06:09:16;101269.53;;;3.84;79.95
82266;BME280;71866;53.340;-6.308;2024-01-15T06:11:44;101272.94;;;3.86;80.56
82266;BME280;71866;53.340;-6.308;2024-01-15T06:14:10;101270.47;;;3.83;80.12
82266;BME280;71866;53.340;-6.308;2024-01-15T06:16:38;101285.41;;;3.84;80.72
82266;BME280;71866;53.340;-6.308;2024-01-15T06:19:05;101283.63;;;3.84;80.30
82266;BME280;71866;53.340;-6.308;2024-01-15T06:21:31;101301.16;;;3.87;79.18
82266;BME280;71866;53.340;-6.308;2024-01-15T06:23:59;101297.66;;;3.86;79.98
82266;BME280;71866;53.340;-6.308;2024-01-15T06:26:26;101295.84;;;3.87;79.73
82266;BME280;71866;53.340;-6.308;2024-01-15T06:28:53;101297.66;;;3.86;79.87
82266;BME280;71866;53.340;-6.308;2024-01-15T06:31:22;101288.22;;;3.81;78.55
82266;BME280;71866;53.340;-6.308;2024-01-15T06:33:50;101283.88;;;3.80;79.26
82266;BME280;71866;53.340;-6.308;2024-01-15T06:36:17;101274.38;;;3.75;79.53
82266;BME280;71866;53.340;-6.308;2024-01-15T06:38:44;101277.88;;;3.76;79.86
82266;BME280;71866;53.340;-6.308;2024-01-15T06:41:12;101264.50;;;3.62;79.24
82266;BME280;71866;53.340;-6.308;2024-01-15T06:43:40;101277.81;;;3.60;79.99
82266;BME280;71866;53.340;-6.308;2024-01-15T06:46:07;101286.63;;;3.61;80.93
82266;BME280;71866;53.340;-6.308;2024-01-15T06:48:34;101290.13;;;3.61;80.21
82266;BME280;71866;53.340;-6.308;2024-01-15T06:51:02;101287.63;;;3.58;80.99
82266;BME280;71866;53.340;-6.308;2024-01-15T06:53:30;101304.97;;;3.64;81.83
82266;BME280;71866;53.340;-6.308;2024-01-15T06:55:58;101312.75;;;3.67;81.00
82266;BME280;71866;53.340;-6.308;2024-01-15T06:58:24;101298.50;;;3.69;81.69
82266;BME280;71866;53.340;-6.308;2024-01-15T07:00:52;101301.31;;;3.66;81.90
82266;BME280;71866;53.340;-6.308;2024-01-15T07:03:19;101295.66;;;3.74;82.31
82266;BME280;71866;53.340;-6.308;2024-01-15T07:05:46;101294.47;;;3.80;81.86
82266;BME280;71866;53.340;-6.308;2024-01-15T07:08:13;101296.78;;;3.86;81.37
82266;BME280;71866;53.340;-6.308;2024-01-15T07:10:41;101294.84;;;3.89;81.12
82266;BME280;71866;53.340;-6.308;2024-01-15T07:13:07;101291.31;;;3.89;80.83
82266;BME280;71866;53.340;-6.308;2024-01-15T07:15:34;101302.44;;;3.95;79.99
82266;BME280;71866;53.340;-6.308;2024-01-15T07:18:02;101301.34;;;3.99;80.08
82266;BME280;71866;53.340;-6.308;2024-01-15T07:20:28;101303.91;;;4.01;79.97
82266;BME280;71866;53.340;-6.308;2024-01-15T07:22:56;101297.75;;;4.00;79.47
82266;BME280;71866;53.340;-6.308;2024-01-15T07:25:22;101296.97;;;3.98;79.25
82266;BME280;71866;53.340;-6.308;2024-01-15T07:27:49;101308.34;;;4.00;80.13
82266;BME280;71866;53.340;-6.308;2024-01-15T07:30:17;101310.91;;;4.02;79.91
82266;BME280;71866;53.340;-6.308;2024-01-15T07:32:43;101323.56;;;3.97;78.35
82266;BME280;71866;53.340;-6.308;2024-01-15T07:35:10;101310.56;;;3.92;79.05
82266;BME280;71866;53.340;-6.308;2024-01-15T07:37:38;101327.31;;;3.93;78.65
82266;BME280;71866;53.340;-6.308;2024-01-15T07:40:06;101326.63;;;3.89;78.81
82266;BME280;71866;53.340;-6.308;2024-01-15T07:42:36;101331.22;;;3.86;78.97
82266;BME280;71866;53.340;-6.308;2024-01-15T07:45:06;101316.50;;;3.80;78.40
82266;BME280;71866;53.340;-6.308;2024-01-15T07:47:39;101321.13;;;3.76;78.95
82266;BME280;71866;53.340;-6.308;2024-01-15T07:50:10;101335.28;;;3.75;79.24
82266;BME280;71866;53.340;-6.308;2024-01-15T07:52:41;101336.44;;;3.70;78.52
82266;BME280;71866;53.340;-6.308;2024-01-15T07:55:08;101343.06;;;3.61;79.44
82266;BME280;71866;53.340;-6.308;2024-01-15T07:57:36;101332.81;;;3.55;79.81
82266;BME280;71866;53.340;-6.308;2024-01-15T08:00:03;101345.03;;;3.58;79.84
82266;BME280;71866;53.340;-6.308;2024-01-15T08:02:30;101347.50;;;3.61;80.68
82266;BME280;71866;53.340;-6.308;2024-01-15T08:05:02;101350.16;;;3.61;80.45
82266;BME280;71866;53.340;-6.308;2024-01-15T08:07:29;101336.22;;;3.57;80.08
82266;BME280;71866;53.340;-6.308;2024-01-15T08:09:57;101329.13;;;3.58;80.17
82266;BME280;71866;53.340;-6.308;2024-01-15T08:12:24;101332.25;;;3.66;81.08
82266;BME280;71866;53.340;-6.308;2024-01-15T08:14:52;101330.78;;;3.60;80.24
82266;BME280;71866;53.340;-6.308;2024-01-15T08:17:19;101329.06;;;3.59;79.83
82266;BME280;71866;53.340;-6.308;2024-01-15T08:19:46;101327.97;;;3.63;80.10
82266;BME280;71866;53.340;-6.308;2024-01-15T08:22:13;101327.03;;;3.64;79.95
82266;BME280;71866;53.340;-6.308;2024-01-15T08:24:40;101336.69;;;3.65;79.38
82266;BME280;71866;53.340;-6.308;2024-01-15T08:27:08;101344.53;;;3.67;79.00
82266;BME280;71866;53.340;-6.308;2024-01-15T08:29:34;101351.47;;;3.69;79.38
82266;BME280;71866;53.340;-6.308;2024-01-15T08:32:02;101361.22;;;3.69;79.74
82266;BME280;71866;53.340;-6.308;2024-01-15T08:34:29;101368.00;;;3.74;79.33
82266;BME280;71866;53.340;-6.308;2024-01-15T08:36:57;101363.72;;;3.72;80.71
82266;BME280;71866;53.340;-6.308;2024-01-15T08:39:25;101360.91;;;3.75;79.96
82266;BME280;71866;53.340;-6.308;2024-01-15T08:41:52;101363.31;;;3.80;79.55
82266;BME280;71866;53.340;-6.308;2024-01-15T08:44:19;101350.84;;;3.82;80.17
82266;BME280;71866;53.340;-6.308;2024-01-15T08:46:47;101358.56;;;3.86;78.71
82266;BME280;71866;53.340;-6.308;2024-01-15T08:49:15;101353.09;;;3.89;79.38
82266;BME280;71866;53.340;-6.308;2024-01-15T08:51:43;101346.78;;;3.92;79.06
82266;BME280;71866;53.340;-6.308;2024-01-15T08:54:09;101352.94;;;3.92;79.88
82266;BME280;71866;53.340;-6.308;2024-01-15T08:56:37;101360.13;;;3.90;78.87
82266;BME280;71866;53.340;-6.308;2024-01-15T08:59:04;101364.41;;;3.93;80.03
82266;BME280;71866;53.340;-6.308;2024-01-15T09:01:30;101375.69;;;3.96;80.64
82266;BME280;71866;53.340;-6.308;2024-01-15T09:03:58;101384.66;;;3.94;80.31
82266;BME280;71866;53.340;-6.308;2024-01-15T09:06:25;101369.44;;;3.97;80.94
82266;BME280;71866;53.340;-6.308;2024-01-15T09:08:51;101367.31;;;4.04;81.74
82266;BME280;71866;53.340;-6.308;2024-01-15T09:11:19;101375.03;;;4.08;81.43
82266;BME280;71866;53.340;-6.308;2024-01-15T09:13:46;101366.19;;;4.10;81.38
82266;BME280;71866;53.340;-6.308;2024-01-15T09:16:13;101364.13;;;4.15;80.24
82266;BME280;71866;53.340;-6.308;2024-01-15T09:18:40;101370.13;;;4.18;78.81
82266;BME280;71866;53.340;-6.308;2024-01-15T09:21:08;101372.69;;;4.20;77.77
82266;BME280;71866;53.340;-6.308;2024-01-15T09:23:35;101370.91;;;4.20;77.67
82266;BME280;71866;53.340;-6.308;2024-01-15T09:26:02;101372.63;;;4.21;78.67
82266;BME280;71866;53.340;-6.308;2024-01-15T09:28:29;101376.81;;;4.25;78.50
82266;BME280;71866;53.340;-6.308;2024-01-15T09:30:57;101374.25;;;4.24;79.83
82266;BME280;71866;53.340;-6.308;2024-01-15T09:33:23;101380.31;;;4.26;79.58
82266;BME280;71866;53.340;-6.308;2024-01-15T09:35:51;101386.38;;;4.28;79.95
82266;BME280;71866;53.340;-6.308;2024-01-15T09:38:20;101394.09;;;4.32;79.84
82266;BME280;71866;53.340;-6.308;2024-01-15T09:40:46;101395.47;;;4.39;78.36
82266;BME280;71866;53.340;-6.308;2024-01-15T09:43:14;101396.16;;;4.43;77.88
82266;BME280;71866;53.340;-6.308;2024-01-15T09:45:42;101390.00;;;4.43;77.70
82266;BME280;71866;53.340;-6.308;2024-01-15T09:48:10;101389.16;;;4.42;79.61
82266;BME280;71866;53.340;-6.308;2024-01-15T09:50:36;101388.13;;;4.45;78.73
82266;BME280;71866;53.340;-6.308;2024-01-15T09:53:05;101389.16;;;4.42;79.49
82266;BME280;71866;53.340;-6.308;2024-01-15T09:55:32;101398.69;;;4.46;79.66
82266;BME280;71866;53.340;-6.308;2024-01-15T09:58:01;101398.59;;;4.48;79.19
82266;BME280;71866;53.340;-6.308;2024-01-15T10:00:30;101405.81;;;4.44;79.40
82266;BME280;71866;53.340;-6.308;2024-01-15T10:02:56;101405.81;;;4.44;78.07
82266;BME280;71866;53.340;-6.308;2024-01-15T10:05:24;101406.00;;;4.41;78.03
82266;BME280;71866;53.340;-6.308;2024-01-15T10:07:52;101401.81;;;4.37;78.68
82266;BME280;71866;53.340;-6.308;2024-01-15T10:10:19;101406.00;;;4.41;78.54
82266;BME280;71866;53.340;-6.308;2024-01-15T10:12:48;101397.97;;;4.43;78.38
82266;BME280;71866;53.340;-6.308;2024-01-15T10:15:15;101403.19;;;4.44;77.90
82266;BME280;71866;53.340;-6.308;2024-01-15T10:17:43;101390.16;;;4.39;77.59
82266;BME280;71866;53.340;-6.308;2024-01-15T10:20:13;101397.28;;;4.39;78.19
82266;BME280;71866;53.340;-6.308;2024-01-15T10:22:43;101398.13;;;4.39;78.30
82266;BME280;71866;53.340;-6.308;2024-01-15T10:25:11;101394.63;;;4.39;79.86
82266;BME280;71866;53.340;-6.308;2024-01-15T10:27:40;101405.13;;;4.40;80.57
82266;BME280;71866;53.340;-6.308;2024-01-15T10:30:11;101402.41;;;4.42;79.68
82266;BME280;71866;53.340;-6.308;2024-01-15T10:32:39;101403.34;;;4.41;79.93
82266;BME280;71866;53.340;-6.308;2024-01-15T10:35:07;101401.72;;;4.38;79.78
82266;BME280;71866;53.340;-6.308;2024-01-15T10:37:34;101405.31;;;4.37;79.53
82266;BME280;71866;53.340;-6.308;2024-01-15T10:40:02;101402.75;;;4.36;78.57
82266;BME280;71866;53.340;-6.308;2024-01-15T10:42:29;101402.56;;;4.39;78.97
82266;BME280;71866;53.340;-6.308;2024-01-15T10:44:56;101407.78;;;4.40;78.50
82266;BME280;71866;53.340;-6.308;2024-01-15T10:47:23;101405.91;;;4.43;78.16
82266;BME280;71866;53.340;-6.308;2024-01-15T10:49:51;101400.94;;;4.36;78.51
82266;BME280;71866;53.340;-6.308;2024-01-15T10:52:19;101411.63;;;4.35;78.46
82266;BME280;71866;53.340;-6.308;2024-01-15T10:54:48;101404.88;;;4.29;79.54
82266;BME280;71866;53.340;-6.308;2024-01-15T10:57:21;101410.00;;;4.32;79.25
82266;BME280;71866;53.340;-6.308;2024-01-15T10:59:49;101411.03;;;4.30;79.60
82266;BME280;71866;53.340;-6.308;2024-01-15T11:02:16;101411.97;;;4.29;79.54
82266;BME280;71866;53.340;-6.308;2024-01-15T11:04:44;101411.53;;;4.36;79.90
82266;BME280;71866;53.340;-6.308;2024-01-15T11:07:10;101413.25;;;4.37;78.91
82266;BME280;71866;53.340;-6.308;2024-01-15T11:09:38;101408.66;;;4.41;79.09
82266;BME280;71866;53.340;-6.308;2024-01-15T11:12:12;101411.94;;;4.46;79.20
82266;BME280;71866;53.340;-6.308;2024-01-15T11:14:44;101414.41;;;4.49;77.86
82266;BME280;71866;53.340;-6.308;2024-01-15T11:17:12;101413.69;;;4.46;78.38
82266;BME280;71866;53.340;-6.308;2024-01-15T11:19:47;101409.19;;;4.48;78.76
82266;BME280;71866;53.340;-6.308;2024-01-15T11:25:02;101409.28;;;4.46;78.59
82266;BME280;71866;53.340;-6.308;2024-01-15T11:27:40;101413.19;;;4.39;77.73
82266;BME280;71866;53.340;-6.308;2024-01-15T11:30:09;101403.25;;;4.43;78.13
82266;BME280;71866;53.340;-6.308;2024-01-15T11:32:37;101402.19;;;4.47;78.60
82266;BME280;71866;53.340;-6.308;2024-01-15T11:35:04;101399.91;;;4.39;79.54
82266;BME280;71866;53.340;-6.308;2024-01-15T11:40:22;101400.69;;;4.41;78.64
82266;BME280;71866;53.340;-6.308;2024-01-15T11:42:49;101400.59;;;4.43;79.47
82266;BME280;71866;53.340;-6.308;2024-01-15T11:45:18;101388.94;;;4.47;79.07
82266;BME280;71866;53.340;-6.308;2024-01-15T11:50:52;101397.97;;;4.43;78.01
82266;BME280;71866;53.340;-6.308;2024-01-15T11:53:32;101397.56;;;4.50;78.70
82266;BME280;71866;53.340;-6.308;2024-01-15T11:56:04;101383.28;;;4.53;77.70
82266;BME280;71866;53.340;-6.308;2024-01-15T11:58:40;101387.41;;;4.58;77.96
82266;BME280;71866;53.340;-6.308;2024-01-15T12:01:06;101382.94;;;4.59;77.71
82266;BME280;71866;53.340;-6.308;2024-01-15T12:03:35;101378.59;;;4.58;77.67
82266;BME280;71866;53.340;-6.308;2024-01-15T12:06:05;101377.47;;;4.62;77.79
82266;BME280;71866;53.340;-6.308;2024-01-15T12:08:33;101381.00;;;4.62;77.60
82266;BME280;71866;53.340;-6.308;2024-01-15T12:11:00;101375.34;;;4.68;78.09
82266;BME280;71866;53.340;-6.308;2024-01-15T12:13:27;101375.09;;;4.73;77.78
82266;BME280;71866;53.340;-6.308;2024-01-15T12:15:54;101376.72;;;4.76;78.89
82266;BME280;71866;53.340;-6.308;2024-01-15T12:18:21;101388.00;;;4.79;78.04
82266;BME280;71866;53.340;-6.308;2024-01-15T12:20:49;101385.25;;;4.81;76.92
82266;BME280;71866;53.340;-6.308;2024-01-15T12:23:17;101391.50;;;4.80;76.32
82266;BME280;71866;53.340;-6.308;2024-01-15T12:25:44;101376.44;;;4.80;76.86
82266;BME280;71866;53.340;-6.308;2024-01-15T12:28:12;101382.78;;;4.78;77.52
82266;BME280;71866;53.340;-6.308;2024-01-15T12:30:39;101374.91;;;4.76;77.08
82266;BME280;71866;53.340;-6.308;2024-01-15T12:33:08;101373.78;;;4.80;77.50
82266;BME280;71866;53.340;-6.308;2024-01-15T12:35:36;101375.00;;;4.75;78.14
82266;BME280;71866;53.340;-6.308;2024-01-15T12:38:04;101371.16;;;4.80;78.42
82266;BME280;71866;53.340;-6.308;2024-01-15T12:40:33;101374.44;;;4.85;78.17
82266;BME280;71866;53.340;-6.308;2024-01-15T12:43:00;101380.59;;;4.86;77.89
82266;BME280;71866;53.340;-6.308;2024-01-15T12:45:28;101382.03;;;4.91;77.39
82266;BME280;71866;53.340;-6.308;2024-01-15T12:47:56;101380.16;;;4.93;77.10
82266;BME280;71866;53.340;-6.308;2024-01-15T12:50:24;101367.06;;;4.90;76.44
82266;BME280;71866;53.340;-6.308;2024-01-15T12:52:53;101368.50;;;4.96;77.12
82266;BME280;71866;53.340;-6.308;2024-01-15T12:55:20;101369.38;;;4.96;77.02
82266;BME280;71866;53.340;-6.308;2024-01-15T12:57:47;101355.16;;;4.97;77.41
82266;BME280;71866;53.340;-6.308;2024-01-15T13:00:14;101355.75;;;5.02;77.99